Woodstock, Alabama
Current Conditions -  °F | °C
As of 4:53 PM on Saturday 25 Oct 2014 (Local Time) from KEET Reporting Station
Clear Clear  
Wind Chill: 75°   Ceiling: Unl
Heat Index: 75°   Visibility: 10mi
Dew Point: 57°   Wind: 6mph
Humidity: 53%   Direction: 320°NW
Pressure: 30.04"   Gusts: NA
Location:  33.21°N, 87.15°W
Report Text: KEET 252153Z AUTO 32005KT 10SM CLR 24/14 A3004 RMK AO2 SLP170 T02390139
Loading
Personal Weather Stations






























Interactive Weather Map
Tropical Storm Tracking
New forecast layout! Learn more

10-Day Weather Forecast

Advertisements
Track Severe Weather on mobile